sensor_id;sensor_type;location;lat;lon;timestamp;P1;durP1;ratioP1;P2;durP2;ratioP2
59374;SDS011;45172;55.006;73.460;2022-09-09T00:03:53;14.27;;;4.63;;
59374;SDS011;45172;55.006;73.460;2022-09-09T00:06:31;10.05;;;2.50;;
59374;SDS011;45172;55.006;73.460;2022-09-09T00:11:46;14.07;;;2.88;;
59374;SDS011;45172;55.006;73.460;2022-09-09T00:14:36;8.38;;;2.67;;
59374;SDS011;45172;55.006;73.460;2022-09-09T00:17:11;12.55;;;2.97;;
59374;SDS011;45172;55.006;73.460;2022-09-09T00:19:45;16.05;;;3.75;;
59374;SDS011;45172;55.006;73.460;2022-09-09T00:22:17;13.13;;;3.15;;
59374;SDS011;45172;55.006;73.460;2022-09-09T00:24:44;18.27;;;5.68;;
59374;SDS011;45172;55.006;73.460;2022-09-09T00:27:15;7.78;;;2.83;;
59374;SDS011;45172;55.006;73.460;2022-09-09T00:32:14;12.40;;;3.08;;
59374;SDS011;45172;55.006;73.460;2022-09-09T00:34:46;10.25;;;2.65;;
59374;SDS011;45172;55.006;73.460;2022-09-09T00:37:12;14.00;;;3.30;;
59374;SDS011;45172;55.006;73.460;2022-09-09T00:39:41;11.07;;;3.25;;
59374;SDS011;45172;55.006;73.460;2022-09-09T00:42:20;13.68;;;2.88;;
59374;SDS011;45172;55.006;73.460;2022-09-09T00:47:32;14.95;;;5.72;;
59374;SDS011;45172;55.006;73.460;2022-09-09T00:50:12;5.22;;;2.72;;
59374;SDS011;45172;55.006;73.460;2022-09-09T00:52:49;7.22;;;2.80;;
59374;SDS011;45172;55.006;73.460;2022-09-09T00:55:22;17.73;;;2.85;;
59374;SDS011;45172;55.006;73.460;2022-09-09T00:58:02;9.48;;;2.55;;
59374;SDS011;45172;55.006;73.460;2022-09-09T01:00:29;16.50;;;5.80;;
59374;SDS011;45172;55.006;73.460;2022-09-09T01:08:14;16.95;;;4.07;;
59374;SDS011;45172;55.006;73.460;2022-09-09T01:10:51;10.65;;;3.17;;
59374;SDS011;45172;55.006;73.460;2022-09-09T01:13:25;11.60;;;3.42;;
59374;SDS011;45172;55.006;73.460;2022-09-09T01:15:51;10.98;;;3.60;;
59374;SDS011;45172;55.006;73.460;2022-09-09T01:18:22;9.68;;;3.50;;
59374;SDS011;45172;55.006;73.460;2022-09-09T01:28:50;14.63;;;5.47;;
59374;SDS011;45172;55.006;73.460;2022-09-09T01:31:21;26.67;;;5.03;;
59374;SDS011;45172;55.006;73.460;2022-09-09T01:33:48;15.50;;;5.05;;
59374;SDS011;45172;55.006;73.460;2022-09-09T01:36:22;14.88;;;5.07;;
59374;SDS011;45172;55.006;73.460;2022-09-09T01:38:50;24.63;;;7.90;;
59374;SDS011;45172;55.006;73.460;2022-09-09T01:41:16;12.38;;;3.53;;
59374;SDS011;45172;55.006;73.460;2022-09-09T01:43:42;16.85;;;4.13;;
59374;SDS011;45172;55.006;73.460;2022-09-09T01:46:07;12.90;;;4.32;;
59374;SDS011;45172;55.006;73.460;2022-09-09T01:48:33;14.23;;;4.40;;
59374;SDS011;45172;55.006;73.460;2022-09-09T01:51:07;18.50;;;5.82;;
59374;SDS011;45172;55.006;73.460;2022-09-09T01:53:33;26.67;;;6.47;;
59374;SDS011;45172;55.006;73.460;2022-09-09T01:56:22;14.32;;;4.95;;
59374;SDS011;45172;55.006;73.460;2022-09-09T01:59:03;16.08;;;4.28;;
59374;SDS011;45172;55.006;73.460;2022-09-09T02:04:13;13.65;;;3.25;;
59374;SDS011;45172;55.006;73.460;2022-09-09T02:06:48;25.80;;;5.40;;
59374;SDS011;45172;55.006;73.460;2022-09-09T02:09:24;19.60;;;5.45;;
59374;SDS011;45172;55.006;73.460;2022-09-09T02:12:12;19.63;;;5.63;;
59374;SDS011;45172;55.006;73.460;2022-09-09T02:14:40;16.85;;;3.00;;
59374;SDS011;45172;55.006;73.460;2022-09-09T02:17:10;14.68;;;3.17;;
59374;SDS011;45172;55.006;73.460;2022-09-09T02:19:43;13.35;;;3.35;;
59374;SDS011;45172;55.006;73.460;2022-09-09T02:24:47;27.58;;;5.68;;
59374;SDS011;45172;55.006;73.460;2022-09-09T02:27:15;8.63;;;3.10;;
59374;SDS011;45172;55.006;73.460;2022-09-09T02:29:44;8.82;;;2.60;;
59374;SDS011;45172;55.006;73.460;2022-09-09T02:32:19;10.38;;;3.35;;
59374;SDS011;45172;55.006;73.460;2022-09-09T02:34:47;16.50;;;4.93;;
59374;SDS011;45172;55.006;73.460;2022-09-09T02:37:17;8.45;;;2.60;;
59374;SDS011;45172;55.006;73.460;2022-09-09T02:39:54;18.00;;;4.40;;
59374;SDS011;45172;55.006;73.460;2022-09-09T02:42:20;25.75;;;3.90;;
59374;SDS011;45172;55.006;73.460;2022-09-09T02:44:46;18.55;;;4.10;;
59374;SDS011;45172;55.006;73.460;2022-09-09T02:55:05;20.17;;;4.07;;
59374;SDS011;45172;55.006;73.460;2022-09-09T02:57:32;19.27;;;4.43;;
59374;SDS011;45172;55.006;73.460;2022-09-09T02:59:59;21.73;;;5.00;;
59374;SDS011;45172;55.006;73.460;2022-09-09T03:02:35;19.23;;;4.97;;
59374;SDS011;45172;55.006;73.460;2022-09-09T03:05:06;17.60;;;5.07;;
59374;SDS011;45172;55.006;73.460;2022-09-09T03:07:32;24.85;;;4.38;;
59374;SDS011;45172;55.006;73.460;2022-09-09T03:09:58;15.57;;;2.42;;
59374;SDS011;45172;55.006;73.460;2022-09-09T03:12:30;18.60;;;4.70;;
59374;SDS011;45172;55.006;73.460;2022-09-09T03:14:55;12.85;;;3.90;;
59374;SDS011;45172;55.006;73.460;2022-09-09T03:17:31;20.08;;;3.90;;
59374;SDS011;45172;55.006;73.460;2022-09-09T03:19:57;12.00;;;3.33;;
59374;SDS011;45172;55.006;73.460;2022-09-09T03:22:24;16.45;;;3.30;;
59374;SDS011;45172;55.006;73.460;2022-09-09T03:24:53;15.77;;;3.10;;
59374;SDS011;45172;55.006;73.460;2022-09-09T03:27:19;16.83;;;3.80;;
59374;SDS011;45172;55.006;73.460;2022-09-09T03:29:45;17.23;;;3.50;;
59374;SDS011;45172;55.006;73.460;2022-09-09T03:32:11;12.35;;;3.03;;
59374;SDS011;45172;55.006;73.460;2022-09-09T03:34:38;10.88;;;3.20;;
59374;SDS011;45172;55.006;73.460;2022-09-09T03:37:19;19.38;;;3.50;;
59374;SDS011;45172;55.006;73.460;2022-09-09T03:39:50;16.50;;;3.08;;
59374;SDS011;45172;55.006;73.460;2022-09-09T03:42:16;15.57;;;2.88;;
59374;SDS011;45172;55.006;73.460;2022-09-09T03:44:45;13.82;;;2.67;;
59374;SDS011;45172;55.006;73.460;2022-09-09T03:47:16;9.90;;;2.63;;
59374;SDS011;45172;55.006;73.460;2022-09-09T03:49:46;13.20;;;2.65;;
59374;SDS011;45172;55.006;73.460;2022-09-09T03:52:12;11.75;;;2.65;;
59374;SDS011;45172;55.006;73.460;2022-09-09T03:54:39;10.23;;;2.75;;
59374;SDS011;45172;55.006;73.460;2022-09-09T03:57:15;11.77;;;3.15;;
59374;SDS011;45172;55.006;73.460;2022-09-09T03:59:42;13.98;;;4.00;;
59374;SDS011;45172;55.006;73.460;2022-09-09T04:02:08;14.75;;;4.40;;
59374;SDS011;45172;55.006;73.460;2022-09-09T04:04:44;15.23;;;4.15;;
59374;SDS011;45172;55.006;73.460;2022-09-09T04:07:15;14.48;;;4.85;;
59374;SDS011;45172;55.006;73.460;2022-09-09T04:09:41;11.02;;;4.47;;
59374;SDS011;45172;55.006;73.460;2022-09-09T04:12:07;15.23;;;3.53;;
59374;SDS011;45172;55.006;73.460;2022-09-09T04:14:32;13.77;;;3.08;;
59374;SDS011;45172;55.006;73.460;2022-09-09T04:16:58;7.93;;;2.63;;
59374;SDS011;45172;55.006;73.460;2022-09-09T04:19:25;12.05;;;1.75;;
59374;SDS011;45172;55.006;73.460;2022-09-09T04:21:51;8.00;;;1.50;;
59374;SDS011;45172;55.006;73.460;2022-09-09T04:24:17;12.57;;;2.30;;
59374;SDS011;45172;55.006;73.460;2022-09-09T04:26:43;11.23;;;2.03;;
59374;SDS011;45172;55.006;73.460;2022-09-09T04:29:09;4.72;;;1.70;;
59374;SDS011;45172;55.006;73.460;2022-09-09T04:31:35;6.13;;;1.90;;
59374;SDS011;45172;55.006;73.460;2022-09-09T04:34:01;6.70;;;1.80;;
59374;SDS011;45172;55.006;73.460;2022-09-09T04:36:31;10.40;;;1.60;;
59374;SDS011;45172;55.006;73.460;2022-09-09T04:38:57;7.47;;;1.50;;
59374;SDS011;45172;55.006;73.460;2022-09-09T04:41:23;7.38;;;2.30;;
59374;SDS011;45172;55.006;73.460;2022-09-09T04:43:49;5.85;;;1.70;;
59374;SDS011;45172;55.006;73.460;2022-09-09T04:46:21;11.13;;;1.88;;
59374;SDS011;45172;55.006;73.460;2022-09-09T04:48:48;5.57;;;1.75;;
59374;SDS011;45172;55.006;73.460;2022-09-09T04:51:14;6.07;;;1.65;;
59374;SDS011;45172;55.006;73.460;2022-09-09T04:53:40;8.00;;;0.90;;
59374;SDS011;45172;55.006;73.460;2022-09-09T04:56:09;6.65;;;1.20;;
59374;SDS011;45172;55.006;73.460;2022-09-09T04:58:47;7.47;;;1.13;;
59374;SDS011;45172;55.006;73.460;2022-09-09T05:01:14;3.92;;;0.93;;
59374;SDS011;45172;55.006;73.460;2022-09-09T05:03:40;4.50;;;0.90;;
59374;SDS011;45172;55.006;73.460;2022-09-09T05:06:12;5.10;;;1.00;;
59374;SDS011;45172;55.006;73.460;2022-09-09T05:08:38;6.38;;;1.33;;
59374;SDS011;45172;55.006;73.460;2022-09-09T05:11:15;4.20;;;1.58;;
59374;SDS011;45172;55.006;73.460;2022-09-09T05:13:52;4.37;;;1.10;;
59374;SDS011;45172;55.006;73.460;2022-09-09T05:16:19;7.05;;;0.85;;
59374;SDS011;45172;55.006;73.460;2022-09-09T05:18:45;1.83;;;0.70;;
59374;SDS011;45172;55.006;73.460;2022-09-09T05:21:19;7.95;;;0.88;;
59374;SDS011;45172;55.006;73.460;2022-09-09T05:23:55;8.32;;;0.70;;
59374;SDS011;45172;55.006;73.460;2022-09-09T05:26:26;7.57;;;0.90;;
59374;SDS011;45172;55.006;73.460;2022-09-09T05:28:58;3.88;;;0.90;;
59374;SDS011;45172;55.006;73.460;2022-09-09T05:31:31;2.92;;;0.95;;
59374;SDS011;45172;55.006;73.460;2022-09-09T05:33:59;14.90;;;1.30;;
59374;SDS011;45172;55.006;73.460;2022-09-09T05:36:25;10.40;;;1.17;;
59374;SDS011;45172;55.006;73.460;2022-09-09T05:38:51;7.50;;;0.93;;
59374;SDS011;45172;55.006;73.460;2022-09-09T05:41:29;4.50;;;0.90;;
59374;SDS011;45172;55.006;73.460;2022-09-09T05:43:56;6.45;;;1.00;;
59374;SDS011;45172;55.006;73.460;2022-09-09T05:46:26;5.60;;;1.00;;
59374;SDS011;45172;55.006;73.460;2022-09-09T05:48:52;10.35;;;1.40;;
59374;SDS011;45172;55.006;73.460;2022-09-09T05:51:29;7.97;;;1.90;;
59374;SDS011;45172;55.006;73.460;2022-09-09T05:54:03;9.52;;;2.17;;
59374;SDS011;45172;55.006;73.460;2022-09-09T05:56:34;8.70;;;2.00;;
59374;SDS011;45172;55.006;73.460;2022-09-09T05:59:01;9.93;;;2.03;;
59374;SDS011;45172;55.006;73.460;2022-09-09T06:01:31;4.07;;;1.20;;
59374;SDS011;45172;55.006;73.460;2022-09-09T06:03:58;3.90;;;0.95;;
59374;SDS011;45172;55.006;73.460;2022-09-09T06:06:33;4.97;;;1.00;;
59374;SDS011;45172;55.006;73.460;2022-09-09T06:09:07;10.27;;;0.90;;
59374;SDS011;45172;55.006;73.460;2022-09-09T06:11:35;6.53;;;1.00;;
59374;SDS011;45172;55.006;73.460;2022-09-09T06:14:01;5.20;;;0.90;;
59374;SDS011;45172;55.006;73.460;2022-09-09T06:16:32;6.03;;;0.88;;
59374;SDS011;45172;55.006;73.460;2022-09-09T06:19:00;7.85;;;1.02;;
59374;SDS011;45172;55.006;73.460;2022-09-09T06:21:36;3.58;;;0.90;;
59374;SDS011;45172;55.006;73.460;2022-09-09T06:24:02;5.53;;;0.80;;
59374;SDS011;45172;55.006;73.460;2022-09-09T06:26:32;5.25;;;1.17;;
59374;SDS011;45172;55.006;73.460;2022-09-09T06:29:09;6.35;;;0.82;;
59374;SDS011;45172;55.006;73.460;2022-09-09T06:31:35;9.60;;;1.00;;
59374;SDS011;45172;55.006;73.460;2022-09-09T06:34:07;13.35;;;0.98;;
59374;SDS011;45172;55.006;73.460;2022-09-09T06:36:34;4.05;;;0.75;;
59374;SDS011;45172;55.006;73.460;2022-09-09T06:39:00;4.72;;;0.80;;
59374;SDS011;45172;55.006;73.460;2022-09-09T06:41:32;7.82;;;0.95;;
59374;SDS011;45172;55.006;73.460;2022-09-09T06:44:08;6.75;;;0.90;;
59374;SDS011;45172;55.006;73.460;2022-09-09T06:46:37;8.38;;;0.90;;
59374;SDS011;45172;55.006;73.460;2022-09-09T06:49:03;2.08;;;0.70;;
59374;SDS011;45172;55.006;73.460;2022-09-09T06:51:33;5.40;;;0.93;;
59374;SDS011;45172;55.006;73.460;2022-09-09T06:54:00;4.32;;;0.88;;
59374;SDS011;45172;55.006;73.460;2022-09-09T06:56:33;3.70;;;1.08;;
59374;SDS011;45172;55.006;73.460;2022-09-09T06:59:01;6.20;;;0.95;;
59374;SDS011;45172;55.006;73.460;2022-09-09T07:01:29;3.97;;;0.70;;
59374;SDS011;45172;55.006;73.460;2022-09-09T07:03:56;4.30;;;0.80;;
59374;SDS011;45172;55.006;73.460;2022-09-09T07:06:28;8.77;;;1.05;;
59374;SDS011;45172;55.006;73.460;2022-09-09T07:09:05;9.82;;;0.93;;
59374;SDS011;45172;55.006;73.460;2022-09-09T07:11:41;5.32;;;1.20;;
59374;SDS011;45172;55.006;73.460;2022-09-09T07:14:07;7.32;;;1.20;;
59374;SDS011;45172;55.006;73.460;2022-09-09T07:16:34;6.95;;;1.08;;
59374;SDS011;45172;55.006;73.460;2022-09-09T07:19:03;5.65;;;2.22;;
59374;SDS011;45172;55.006;73.460;2022-09-09T07:21:34;7.00;;;2.38;;
59374;SDS011;45172;55.006;73.460;2022-09-09T07:24:00;6.40;;;1.40;;
59374;SDS011;45172;55.006;73.460;2022-09-09T07:26:28;6.72;;;1.25;;
59374;SDS011;45172;55.006;73.460;2022-09-09T07:28:54;9.05;;;1.30;;
59374;SDS011;45172;55.006;73.460;2022-09-09T07:31:27;5.80;;;1.17;;
59374;SDS011;45172;55.006;73.460;2022-09-09T07:33:55;7.10;;;2.50;;
59374;SDS011;45172;55.006;73.460;2022-09-09T07:36:39;4.28;;;1.20;;
59374;SDS011;45172;55.006;73.460;2022-09-09T07:39:17;7.05;;;1.70;;
59374;SDS011;45172;55.006;73.460;2022-09-09T07:41:47;5.50;;;1.30;;
59374;SDS011;45172;55.006;73.460;2022-09-09T07:44:23;8.35;;;1.10;;
59374;SDS011;45172;55.006;73.460;2022-09-09T07:46:52;6.53;;;1.40;;
59374;SDS011;45172;55.006;73.460;2022-09-09T07:49:18;3.60;;;1.20;;
59374;SDS011;45172;55.006;73.460;2022-09-09T07:51:45;12.95;;;1.38;;
59374;SDS011;45172;55.006;73.460;2022-09-09T07:54:21;11.27;;;1.08;;
59374;SDS011;45172;55.006;73.460;2022-09-09T07:56:54;12.85;;;1.40;;
59374;SDS011;45172;55.006;73.460;2022-09-09T07:59:29;13.13;;;2.28;;
59374;SDS011;45172;55.006;73.460;2022-09-09T08:01:56;13.85;;;1.90;;
59374;SDS011;45172;55.006;73.460;2022-09-09T08:04:22;9.73;;;1.25;;
59374;SDS011;45172;55.006;73.460;2022-09-09T08:06:57;6.57;;;1.08;;
59374;SDS011;45172;55.006;73.460;2022-09-09T08:09:26;11.13;;;1.13;;
59374;SDS011;45172;55.006;73.460;2022-09-09T08:11:58;10.43;;;1.00;;
59374;SDS011;45172;55.006;73.460;2022-09-09T08:14:25;18.48;;;1.35;;
59374;SDS011;45172;55.006;73.460;2022-09-09T08:16:57;6.50;;;1.10;;
59374;SDS011;45172;55.006;73.460;2022-09-09T08:19:34;12.55;;;1.85;;
59374;SDS011;45172;55.006;73.460;2022-09-09T08:22:01;11.85;;;1.13;;
59374;SDS011;45172;55.006;73.460;2022-09-09T08:24:28;5.55;;;0.93;;
59374;SDS011;45172;55.006;73.460;2022-09-09T08:26:58;7.55;;;1.10;;
59374;SDS011;45172;55.006;73.460;2022-09-09T08:29:34;21.02;;;2.35;;
59374;SDS011;45172;55.006;73.460;2022-09-09T08:32:00;8.73;;;1.35;;
59374;SDS011;45172;55.006;73.460;2022-09-09T08:34:33;11.60;;;1.10;;
59374;SDS011;45172;55.006;73.460;2022-09-09T08:37:08;13.25;;;1.33;;
59374;SDS011;45172;55.006;73.460;2022-09-09T08:39:34;16.05;;;1.70;;
59374;SDS011;45172;55.006;73.460;2022-09-09T08:42:05;10.77;;;2.35;;
59374;SDS011;45172;55.006;73.460;2022-09-09T08:57:49;11.20;;;1.38;;
59374;SDS011;45172;55.006;73.460;2022-09-09T09:00:20;13.75;;;1.60;;
59374;SDS011;45172;55.006;73.460;2022-09-09T09:05:46;13.45;;;2.05;;
59374;SDS011;45172;55.006;73.460;2022-09-09T09:11:11;21.20;;;11.05;;
59374;SDS011;45172;55.006;73.460;2022-09-09T09:13:44;26.88;;;9.80;;
59374;SDS011;45172;55.006;73.460;2022-09-09T09:18:49;19.50;;;7.40;;
59374;SDS011;45172;55.006;73.460;2022-09-09T09:23:50;79.88;;;26.80;;
59374;SDS011;45172;55.006;73.460;2022-09-09T09:26:19;106.93;;;33.42;;
59374;SDS011;45172;55.006;73.460;2022-09-09T09:28:47;40.65;;;15.20;;
59374;SDS011;45172;55.006;73.460;2022-09-09T09:31:18;69.90;;;31.25;;
59374;SDS011;45172;55.006;73.460;2022-09-09T09:33:49;18.08;;;4.72;;
59374;SDS011;45172;55.006;73.460;2022-09-09T09:36:32;12.75;;;2.38;;
59374;SDS011;45172;55.006;73.460;2022-09-09T09:38:59;6.95;;;2.75;;
59374;SDS011;45172;55.006;73.460;2022-09-09T09:41:43;10.80;;;2.03;;
59374;SDS011;45172;55.006;73.460;2022-09-09T09:44:22;5.90;;;1.70;;
59374;SDS011;45172;55.006;73.460;2022-09-09T09:46:47;17.15;;;2.53;;
59374;SDS011;45172;55.006;73.460;2022-09-09T09:49:13;13.70;;;2.67;;
59374;SDS011;45172;55.006;73.460;2022-09-09T09:51:39;9.68;;;2.05;;
59374;SDS011;45172;55.006;73.460;2022-09-09T09:54:13;13.70;;;2.53;;
59374;SDS011;45172;55.006;73.460;2022-09-09T09:56:41;13.05;;;4.03;;
59374;SDS011;45172;55.006;73.460;2022-09-09T09:59:20;8.68;;;2.05;;
59374;SDS011;45172;55.006;73.460;2022-09-09T10:01:46;13.25;;;2.25;;
59374;SDS011;45172;55.006;73.460;2022-09-09T10:04:22;9.90;;;2.78;;
59374;SDS011;45172;55.006;73.460;2022-09-09T10:06:51;6.75;;;1.80;;
59374;SDS011;45172;55.006;73.460;2022-09-09T10:09:30;13.57;;;6.03;;
59374;SDS011;45172;55.006;73.460;2022-09-09T10:14:29;9.02;;;3.92;;
59374;SDS011;45172;55.006;73.460;2022-09-09T10:17:09;14.82;;;3.08;;
59374;SDS011;45172;55.006;73.460;2022-09-09T10:19:38;38.95;;;15.85;;
59374;SDS011;45172;55.006;73.460;2022-09-09T10:27:15;8.88;;;3.55;;
59374;SDS011;45172;55.006;73.460;2022-09-09T10:29:57;18.90;;;3.75;;
59374;SDS011;45172;55.006;73.460;2022-09-09T10:38:17;17.98;;;5.15;;
59374;SDS011;45172;55.006;73.460;2022-09-09T10:43:20;16.45;;;3.38;;
59374;SDS011;45172;55.006;73.460;2022-09-09T10:46:04;10.50;;;2.03;;
59374;SDS011;45172;55.006;73.460;2022-09-09T10:56:22;12.60;;;2.72;;
59374;SDS011;45172;55.006;73.460;2022-09-09T10:59:11;11.63;;;2.22;;
59374;SDS011;45172;55.006;73.460;2022-09-09T11:02:00;10.10;;;2.30;;
59374;SDS011;45172;55.006;73.460;2022-09-09T11:04:32;12.90;;;2.42;;
59374;SDS011;45172;55.006;73.460;2022-09-09T11:07:11;8.05;;;2.45;;
59374;SDS011;45172;55.006;73.460;2022-09-09T11:09:50;13.55;;;2.60;;
59374;SDS011;45172;55.006;73.460;2022-09-09T11:12:28;6.15;;;2.30;;
59374;SDS011;45172;55.006;73.460;2022-09-09T11:20:01;14.35;;;2.13;;
59374;SDS011;45172;55.006;73.460;2022-09-09T11:22:30;9.13;;;2.33;;
59374;SDS011;45172;55.006;73.460;2022-09-09T11:40:24;11.10;;;3.80;;
59374;SDS011;45172;55.006;73.460;2022-09-09T11:45:42;11.45;;;3.13;;
59374;SDS011;45172;55.006;73.460;2022-09-09T11:48:37;19.80;;;2.85;;
59374;SDS011;45172;55.006;73.460;2022-09-09T11:53:56;22.48;;;5.22;;
59374;SDS011;45172;55.006;73.460;2022-09-09T11:59:03;13.82;;;2.45;;
59374;SDS011;45172;55.006;73.460;2022-09-09T12:01:37;8.82;;;2.42;;
59374;SDS011;45172;55.006;73.460;2022-09-09T12:04:10;6.10;;;2.60;;
59374;SDS011;45172;55.006;73.460;2022-09-09T12:06:44;6.45;;;2.05;;
59374;SDS011;45172;55.006;73.460;2022-09-09T12:19:46;7.18;;;2.10;;
59374;SDS011;45172;55.006;73.460;2022-09-09T12:22:32;9.10;;;1.98;;
59374;SDS011;45172;55.006;73.460;2022-09-09T12:25:06;9.60;;;3.63;;
59374;SDS011;45172;55.006;73.460;2022-09-09T12:27:38;8.77;;;2.80;;
59374;SDS011;45172;55.006;73.460;2022-09-09T12:30:14;10.40;;;2.78;;
59374;SDS011;45172;55.006;73.460;2022-09-09T12:32:41;16.35;;;4.07;;
59374;SDS011;45172;55.006;73.460;2022-09-09T12:35:16;8.63;;;3.40;;
59374;SDS011;45172;55.006;73.460;2022-09-09T12:37:51;18.88;;;4.25;;
59374;SDS011;45172;55.006;73.460;2022-09-09T12:40:20;15.45;;;8.43;;
59374;SDS011;45172;55.006;73.460;2022-09-09T12:42:47;11.68;;;5.72;;
59374;SDS011;45172;55.006;73.460;2022-09-09T12:45:22;19.25;;;11.68;;
59374;SDS011;45172;55.006;73.460;2022-09-09T12:48:06;22.75;;;13.70;;
59374;SDS011;45172;55.006;73.460;2022-09-09T12:50:46;17.30;;;9.25;;
59374;SDS011;45172;55.006;73.460;2022-09-09T12:53:18;16.73;;;10.93;;
59374;SDS011;45172;55.006;73.460;2022-09-09T12:55:51;10.45;;;6.93;;
59374;SDS011;45172;55.006;73.460;2022-09-09T12:58:18;10.55;;;4.03;;
59374;SDS011;45172;55.006;73.460;2022-09-09T13:00:55;13.05;;;3.75;;
59374;SDS011;45172;55.006;73.460;2022-09-09T13:03:25;6.43;;;3.58;;
59374;SDS011;45172;55.006;73.460;2022-09-09T13:05:51;6.40;;;3.58;;
59374;SDS011;45172;55.006;73.460;2022-09-09T13:08:18;13.55;;;4.80;;
59374;SDS011;45172;55.006;73.460;2022-09-09T13:13:21;14.20;;;5.10;;
59374;SDS011;45172;55.006;73.460;2022-09-09T13:15:51;15.77;;;6.47;;
59374;SDS011;45172;55.006;73.460;2022-09-09T13:18:19;20.95;;;7.80;;
59374;SDS011;45172;55.006;73.460;2022-09-09T13:20:47;17.80;;;8.32;;
59374;SDS011;45172;55.006;73.460;2022-09-09T13:23:13;23.55;;;8.93;;
59374;SDS011;45172;55.006;73.460;2022-09-09T13:25:40;20.92;;;9.15;;
59374;SDS011;45172;55.006;73.460;2022-09-09T13:28:20;31.90;;;11.57;;
59374;SDS011;45172;55.006;73.460;2022-09-09T13:30:54;29.35;;;16.35;;
59374;SDS011;45172;55.006;73.460;2022-09-09T13:33:33;37.80;;;20.67;;
59374;SDS011;45172;55.006;73.460;2022-09-09T13:36:00;37.03;;;21.23;;
59374;SDS011;45172;55.006;73.460;2022-09-09T13:39:00;39.78;;;22.90;;
59374;SDS011;45172;55.006;73.460;2022-09-09T13:43:56;37.70;;;23.30;;
59374;SDS011;45172;55.006;73.460;2022-09-09T13:46:39;38.95;;;26.48;;
59374;SDS011;45172;55.006;73.460;2022-09-09T13:49:22;38.97;;;21.60;;
59374;SDS011;45172;55.006;73.460;2022-09-09T13:52:02;44.88;;;26.08;;
59374;SDS011;45172;55.006;73.460;2022-09-09T13:54:29;40.80;;;25.95;;
59374;SDS011;45172;55.006;73.460;2022-09-09T13:56:56;50.58;;;31.75;;
59374;SDS011;45172;55.006;73.460;2022-09-09T13:59:23;43.75;;;27.98;;
59374;SDS011;45172;55.006;73.460;2022-09-09T14:01:49;36.15;;;21.65;;
59374;SDS011;45172;55.006;73.460;2022-09-09T14:04:18;31.38;;;18.85;;
59374;SDS011;45172;55.006;73.460;2022-09-09T14:09:17;41.55;;;20.63;;
59374;SDS011;45172;55.006;73.460;2022-09-09T14:11:53;35.03;;;17.38;;
59374;SDS011;45172;55.006;73.460;2022-09-09T14:14:20;46.78;;;22.30;;
59374;SDS011;45172;55.006;73.460;2022-09-09T14:16:51;47.30;;;26.08;;
59374;SDS011;45172;55.006;73.460;2022-09-09T14:19:17;85.00;;;49.33;;
59374;SDS011;45172;55.006;73.460;2022-09-09T14:21:43;109.72;;;68.88;;
59374;SDS011;45172;55.006;73.460;2022-09-09T14:24:09;276.55;;;196.02;;
59374;SDS011;45172;55.006;73.460;2022-09-09T14:26:38;138.70;;;84.47;;
59374;SDS011;45172;55.006;73.460;2022-09-09T14:29:08;49.00;;;29.52;;
59374;SDS011;45172;55.006;73.460;2022-09-09T14:31:42;36.80;;;21.02;;
59374;SDS011;45172;55.006;73.460;2022-09-09T14:34:07;33.40;;;18.33;;
59374;SDS011;45172;55.006;73.460;2022-09-09T14:36:36;41.35;;;19.73;;
59374;SDS011;45172;55.006;73.460;2022-09-09T14:39:12;34.13;;;18.67;;
59374;SDS011;45172;55.006;73.460;2022-09-09T14:41:42;29.55;;;16.40;;
59374;SDS011;45172;55.006;73.460;2022-09-09T14:44:08;30.33;;;15.65;;
59374;SDS011;45172;55.006;73.460;2022-09-09T14:46:36;31.35;;;16.05;;
59374;SDS011;45172;55.006;73.460;2022-09-09T14:49:13;32.08;;;16.55;;
59374;SDS011;45172;55.006;73.460;2022-09-09T14:51:41;36.60;;;16.55;;
59374;SDS011;45172;55.006;73.460;2022-09-09T14:54:14;37.78;;;16.27;;
59374;SDS011;45172;55.006;73.460;2022-09-09T14:56:45;24.40;;;10.25;;
59374;SDS011;45172;55.006;73.460;2022-09-09T14:59:13;34.53;;;11.88;;
59374;SDS011;45172;55.006;73.460;2022-09-09T15:01:39;41.63;;;17.38;;
59374;SDS011;45172;55.006;73.460;2022-09-09T15:04:05;44.58;;;20.33;;
59374;SDS011;45172;55.006;73.460;2022-09-09T15:06:31;53.28;;;21.48;;
59374;SDS011;45172;55.006;73.460;2022-09-09T15:08:58;44.50;;;20.30;;
59374;SDS011;45172;55.006;73.460;2022-09-09T15:11:28;40.22;;;13.95;;
59374;SDS011;45172;55.006;73.460;2022-09-09T15:14:00;42.85;;;14.20;;
59374;SDS011;45172;55.006;73.460;2022-09-09T15:16:27;55.03;;;24.17;;
59374;SDS011;45172;55.006;73.460;2022-09-09T15:19:03;47.92;;;14.80;;
59374;SDS011;45172;55.006;73.460;2022-09-09T15:21:31;58.08;;;25.25;;
59374;SDS011;45172;55.006;73.460;2022-09-09T15:24:08;65.07;;;26.45;;
59374;SDS011;45172;55.006;73.460;2022-09-09T15:26:34;65.07;;;28.20;;
59374;SDS011;45172;55.006;73.460;2022-09-09T15:29:00;83.68;;;35.75;;
59374;SDS011;45172;55.006;73.460;2022-09-09T15:31:28;77.18;;;32.67;;
59374;SDS011;45172;55.006;73.460;2022-09-09T15:36:40;73.03;;;18.83;;
59374;SDS011;45172;55.006;73.460;2022-09-09T15:39:10;79.55;;;30.40;;
59374;SDS011;45172;55.006;73.460;2022-09-09T15:41:48;87.35;;;30.40;;
59374;SDS011;45172;55.006;73.460;2022-09-09T15:44:18;95.00;;;30.00;;
59374;SDS011;45172;55.006;73.460;2022-09-09T15:46:46;49.75;;;16.63;;
59374;SDS011;45172;55.006;73.460;2022-09-09T15:49:25;94.22;;;30.10;;
59374;SDS011;45172;55.006;73.460;2022-09-09T15:52:01;86.32;;;29.17;;
59374;SDS011;45172;55.006;73.460;2022-09-09T15:54:30;96.03;;;29.42;;
59374;SDS011;45172;55.006;73.460;2022-09-09T15:56:59;93.10;;;30.30;;
59374;SDS011;45172;55.006;73.460;2022-09-09T15:59:26;96.85;;;29.55;;
59374;SDS011;45172;55.006;73.460;2022-09-09T16:01:58;81.25;;;28.92;;
59374;SDS011;45172;55.006;73.460;2022-09-09T16:04:28;101.65;;;29.08;;
59374;SDS011;45172;55.006;73.460;2022-09-09T16:07:04;58.15;;;16.48;;
59374;SDS011;45172;55.006;73.460;2022-09-09T16:09:30;81.28;;;28.13;;
59374;SDS011;45172;55.006;73.460;2022-09-09T16:12:06;66.68;;;16.58;;
59374;SDS011;45172;55.006;73.460;2022-09-09T16:14:35;52.47;;;15.80;;
59374;SDS011;45172;55.006;73.460;2022-09-09T16:17:04;63.35;;;26.42;;
59374;SDS011;45172;55.006;73.460;2022-09-09T16:19:41;63.53;;;15.93;;
59374;SDS011;45172;55.006;73.460;2022-09-09T16:22:12;106.90;;;30.52;;
59374;SDS011;45172;55.006;73.460;2022-09-09T16:24:40;107.75;;;30.70;;
59374;SDS011;45172;55.006;73.460;2022-09-09T16:27:07;93.22;;;30.33;;
59374;SDS011;45172;55.006;73.460;2022-09-09T16:29:37;70.38;;;27.60;;
59374;SDS011;45172;55.006;73.460;2022-09-09T16:32:04;85.93;;;29.55;;
59374;SDS011;45172;55.006;73.460;2022-09-09T16:34:30;94.57;;;31.00;;
59374;SDS011;45172;55.006;73.460;2022-09-09T16:37:01;79.40;;;28.95;;
59374;SDS011;45172;55.006;73.460;2022-09-09T16:39:32;69.22;;;17.90;;
59374;SDS011;45172;55.006;73.460;2022-09-09T16:41:58;90.65;;;32.60;;
59374;SDS011;45172;55.006;73.460;2022-09-09T16:44:29;95.22;;;32.70;;
59374;SDS011;45172;55.006;73.460;2022-09-09T16:47:06;103.68;;;32.20;;
59374;SDS011;45172;55.006;73.460;2022-09-09T16:49:37;112.75;;;49.10;;
59374;SDS011;45172;55.006;73.460;2022-09-09T16:52:04;93.43;;;30.25;;
59374;SDS011;45172;55.006;73.460;2022-09-09T16:54:34;143.35;;;62.97;;
59374;SDS011;45172;55.006;73.460;2022-09-09T16:57:05;145.90;;;62.83;;